aviador You're here:

PAHP Decoded Metar

HOOPER BAY in AK, USA
Report Time2017-09-22 10:56:00
UTC Time2017-09-22 11:47:25
Flight Rules vfr VFR
Wind350° at 15 kt
W.Decomp.*RWY 31: 13.4 kt HW 6.8 kt RCW
W.Rank350° ranks 1
Current wind is above 350° avg. (12.8)
Visibility9999 m
Phenomena:Light Rain
Clouds:N/A
Expected CloudBase > 400 ft AGL from Temp-Dew spread
CeilingNone
Temp07°C (ISA -8)
Dew Point06°C (93% RH)
AAT0.7°C
QNH1010 hPa
Density Alt-715 ft
Elevation16 ft
Report Wrong Elevation
Raw Report
PAHP 221056Z AUTO 35015KT 10SM -RA CLR 07/06 A2983 RMK AO2 RAB55
SLP140 P0000 T00670056=

Extra information for PAHP:More info

Metar Taf Metar & Taf Last 4 Metars F.Rules Stats Wind Profile Meteogram Temp Stats Airport Information Weather charts Add Link Nearby VenuesMetar ALERT Operation Metar Decoded Social comments

AIRNAV info for PAHP